createdAt,value
2019-06-10T00:01:15.472Z,18.90
2019-06-10T00:03:42.352Z,18.90
2019-06-10T00:06:11.341Z,18.90
2019-06-10T00:08:37.845Z,18.90
2019-06-10T00:11:06.153Z,18.90
2019-06-10T00:13:33.199Z,18.70
2019-06-10T00:16:01.707Z,18.80
2019-06-10T00:18:38.742Z,18.80
2019-06-10T00:20:57.280Z,18.80
2019-06-10T00:23:24.102Z,18.50
2019-06-10T00:25:51.615Z,18.80
2019-06-10T00:28:18.546Z,18.80
2019-06-10T00:30:45.636Z,18.80
2019-06-10T00:33:12.961Z,18.80
2019-06-10T00:35:41.226Z,18.70
2019-06-10T00:38:09.322Z,18.70
2019-06-10T00:40:36.938Z,18.70
2019-06-10T00:43:05.279Z,18.70
2019-06-10T00:45:32.590Z,18.70
2019-06-10T00:48:12.349Z,18.70
2019-06-10T00:50:28.053Z,18.70
2019-06-10T00:52:54.780Z,18.70
2019-06-10T00:55:21.439Z,18.70
2019-06-10T00:57:48.245Z,18.60
2019-06-10T01:00:25.374Z,18.60
2019-06-10T01:02:43.367Z,18.60
2019-06-10T01:05:12.462Z,18.60
2019-06-10T01:07:38.461Z,18.60
2019-06-10T01:10:05.053Z,18.60
2019-06-10T01:12:31.740Z,18.60
2019-06-10T01:15:00.752Z,18.40
2019-06-10T01:17:27.117Z,18.50
2019-06-10T01:19:54.085Z,18.50
2019-06-10T01:22:21.270Z,18.50
2019-06-10T01:24:48.150Z,18.50
2019-06-10T01:27:15.120Z,18.50
2019-06-10T01:29:42.003Z,18.50
2019-06-10T01:32:09.762Z,18.40
2019-06-10T01:34:37.118Z,18.40
2019-06-10T01:37:03.808Z,18.40
2019-06-10T01:39:30.958Z,18.40
2019-06-10T01:41:57.754Z,18.40
2019-06-10T01:44:24.448Z,18.40
2019-06-10T01:46:51.633Z,18.40
2019-06-10T01:49:18.391Z,18.40
2019-06-10T01:51:44.984Z,18.30
2019-06-10T01:54:14.841Z,18.30
2019-06-10T01:56:40.892Z,18.30
2019-06-10T01:59:11.896Z,18.30
2019-06-10T02:02:00.789Z,18.30
2019-06-10T02:04:27.058Z,18.30
2019-06-10T02:06:53.648Z,18.30
2019-06-10T02:09:23.013Z,18.20
2019-06-10T02:11:51.405Z,18.20
2019-06-10T02:14:19.357Z,18.20
2019-06-10T02:16:46.496Z,18.20
2019-06-10T02:19:15.514Z,18.20
2019-06-10T02:21:41.852Z,18.20
2019-06-10T02:24:08.527Z,18.20
2019-06-10T02:26:35.534Z,18.20
2019-06-10T02:29:02.473Z,18.10
2019-06-10T02:31:37.024Z,18.10
2019-06-10T02:33:57.970Z,18.10
2019-06-10T02:36:31.240Z,18.10
2019-06-10T02:38:54.134Z,18.10
2019-06-10T02:41:29.586Z,18.10
2019-06-10T02:43:49.192Z,18.10
2019-06-10T02:46:18.016Z,18.00
2019-06-10T02:48:44.498Z,18.00
2019-06-10T02:51:14.738Z,18.00
2019-06-10T02:53:43.073Z,18.00
2019-06-10T02:56:08.775Z,18.00
2019-06-10T02:58:38.886Z,18.00
2019-06-10T03:01:04.562Z,17.90
2019-06-10T03:03:39.347Z,18.00
2019-06-10T03:05:59.810Z,17.90
2019-06-10T03:08:29.559Z,17.90
2019-06-10T03:10:54.996Z,17.90
2019-06-10T03:13:22.764Z,17.90
2019-06-10T03:15:56.837Z,17.90
2019-06-10T03:18:24.767Z,17.80
2019-06-10T03:20:52.921Z,17.80
2019-06-10T03:23:19.996Z,17.80
2019-06-10T03:25:58.171Z,17.80
2019-06-10T03:28:25.291Z,17.80
2019-06-10T03:30:55.404Z,17.80
2019-06-10T03:33:23.659Z,17.70
2019-06-10T03:35:49.566Z,17.70
2019-06-10T03:38:16.403Z,17.70
2019-06-10T03:40:43.446Z,17.70
2019-06-10T03:43:11.845Z,17.70
2019-06-10T03:45:38.528Z,17.70
2019-06-10T03:48:05.276Z,17.60
2019-06-10T03:50:33.312Z,17.60
2019-06-10T03:53:01.400Z,17.60
2019-06-10T03:55:29.168Z,17.60
2019-06-10T03:57:56.003Z,17.50
2019-06-10T04:00:24.537Z,17.50
2019-06-10T04:02:53.220Z,17.50
2019-06-10T04:05:19.791Z,17.50
2019-06-10T04:07:46.534Z,17.50
2019-06-10T04:10:14.265Z,17.50
2019-06-10T04:12:43.303Z,17.50
2019-06-10T04:15:12.329Z,17.50
2019-06-10T04:17:38.575Z,17.20
2019-06-10T04:20:11.631Z,17.40
2019-06-10T04:22:35.035Z,17.40
2019-06-10T04:25:03.185Z,17.40
2019-06-10T04:27:29.824Z,17.40
2019-06-10T04:29:56.845Z,17.40
2019-06-10T04:32:25.729Z,17.40
2019-06-10T04:34:52.969Z,17.30
2019-06-10T04:37:20.376Z,17.10
2019-06-10T04:39:47.260Z,17.30
2019-06-10T04:42:14.219Z,17.30
2019-06-10T04:44:42.327Z,17.30
2019-06-10T04:47:09.193Z,17.30
2019-06-10T04:49:36.030Z,17.30
2019-06-10T04:52:03.240Z,17.30
2019-06-10T04:54:30.401Z,17.30
2019-06-10T04:56:56.987Z,17.30
2019-06-10T04:59:25.849Z,17.30
2019-06-10T05:01:53.096Z,17.50
2019-06-10T05:04:21.634Z,17.30
2019-06-10T05:06:48.756Z,17.30
2019-06-10T05:09:15.467Z,17.30
2019-06-10T05:11:43.100Z,17.30
2019-06-10T05:14:09.989Z,17.30
2019-06-10T05:16:36.805Z,17.30
2019-06-10T05:19:03.916Z,17.20
2019-06-10T05:21:31.446Z,17.30
2019-06-10T05:23:59.227Z,17.30
2019-06-10T05:26:27.201Z,17.20
2019-06-10T05:28:56.181Z,17.30
2019-06-10T05:31:25.760Z,17.30
2019-06-10T05:33:53.090Z,17.30
2019-06-10T05:36:20.642Z,17.30
2019-06-10T05:38:47.409Z,17.30
2019-06-10T05:41:15.186Z,17.30
2019-06-10T05:43:42.968Z,17.30
2019-06-10T05:46:13.136Z,17.30
2019-06-10T05:48:39.133Z,17.30
2019-06-10T05:51:06.857Z,17.30
2019-06-10T05:53:35.480Z,17.30
2019-06-10T05:56:02.446Z,17.30
2019-06-10T05:58:29.474Z,17.30
2019-06-10T06:00:58.474Z,17.30
2019-06-10T06:03:25.711Z,17.30
2019-06-10T06:05:52.619Z,17.30
2019-06-10T06:08:19.642Z,17.30
2019-06-10T06:10:46.505Z,17.30
2019-06-10T06:13:13.606Z,17.30
2019-06-10T06:15:42.407Z,17.30
2019-06-10T06:18:10.624Z,17.30
2019-06-10T06:20:37.957Z,17.40
2019-06-10T06:23:04.676Z,17.40
2019-06-10T06:25:37.268Z,17.40
2019-06-10T06:28:02.859Z,17.40
2019-06-10T06:30:30.083Z,17.40
2019-06-10T06:32:57.232Z,17.40
2019-06-10T06:35:23.952Z,17.50
2019-06-10T06:37:53.940Z,17.50
2019-06-10T06:40:19.201Z,17.50
2019-06-10T06:42:46.047Z,17.50
2019-06-10T06:45:12.798Z,17.50
2019-06-10T06:47:39.937Z,17.50
2019-06-10T06:50:06.681Z,17.60
2019-06-10T06:53:06.059Z,17.60
2019-06-10T06:55:02.576Z,17.60
2019-06-10T06:57:29.475Z,17.60
2019-06-10T06:59:56.093Z,17.60
2019-06-10T07:02:24.661Z,17.70
2019-06-10T07:04:52.564Z,17.70
2019-06-10T07:07:19.418Z,17.70
2019-06-10T07:09:46.085Z,17.70
2019-06-10T07:12:13.101Z,17.70
2019-06-10T07:14:40.830Z,17.80
2019-06-10T07:17:08.755Z,17.80
2019-06-10T07:19:39.170Z,17.80
2019-06-10T07:22:11.717Z,17.80
2019-06-10T07:24:36.023Z,17.80
2019-06-10T07:27:02.763Z,17.90
2019-06-10T07:29:29.940Z,17.90
2019-06-10T07:31:56.879Z,17.90
2019-06-10T07:34:23.798Z,17.90
2019-06-10T07:36:52.182Z,18.00
2019-06-10T07:39:19.678Z,18.00
2019-06-10T07:41:48.298Z,18.00
2019-06-10T07:44:15.132Z,18.00
2019-06-10T07:46:45.200Z,18.10
2019-06-10T07:49:13.512Z,18.10
2019-06-10T07:51:40.159Z,18.10
2019-06-10T07:54:08.098Z,18.20
2019-06-10T07:56:40.343Z,18.20
2019-06-10T07:59:04.466Z,18.20
2019-06-10T08:01:33.350Z,18.20
2019-06-10T08:04:00.296Z,18.30
2019-06-10T08:06:27.120Z,18.40
2019-06-10T08:08:54.053Z,18.00
2019-06-10T08:11:22.917Z,18.40
2019-06-10T08:13:49.318Z,18.50
2019-06-10T08:16:16.065Z,18.50
2019-06-10T08:19:13.925Z,18.50
2019-06-10T08:21:12.249Z,18.60
2019-06-10T08:23:40.189Z,18.60
2019-06-10T08:26:07.737Z,18.60
2019-06-10T08:28:35.509Z,18.70
2019-06-10T08:31:03.715Z,18.80
2019-06-10T08:33:32.829Z,18.80
2019-06-10T08:36:00.578Z,18.80
2019-06-10T08:38:27.531Z,18.90
2019-06-10T08:40:54.098Z,19.00
2019-06-10T08:43:22.665Z,19.00
2019-06-10T08:45:49.159Z,19.10
2019-06-10T08:48:15.893Z,19.10
2019-06-10T08:50:46.598Z,19.20
2019-06-10T08:53:15.541Z,19.20
2019-06-10T08:55:42.867Z,19.30
2019-06-10T08:58:08.429Z,19.40
2019-06-10T09:00:35.079Z,19.40
2019-06-10T09:03:04.080Z,19.50
2019-06-10T09:05:32.269Z,19.50
2019-06-10T09:07:58.997Z,19.60
2019-06-10T09:10:25.730Z,19.60
2019-06-10T09:12:54.678Z,19.70
2019-06-10T09:15:23.513Z,19.70
2019-06-10T09:17:51.828Z,19.80
2019-06-10T09:20:17.846Z,19.90
2019-06-10T09:22:48.506Z,19.90
2019-06-10T09:25:13.325Z,20.00
2019-06-10T09:27:42.571Z,20.00
2019-06-10T09:30:09.898Z,20.10
2019-06-10T09:32:37.538Z,20.10
2019-06-10T09:35:04.638Z,20.20
2019-06-10T09:37:32.027Z,20.20
2019-06-10T09:39:59.852Z,20.30
2019-06-10T09:42:26.776Z,20.40
2019-06-10T09:44:55.608Z,20.20
2019-06-10T09:47:22.649Z,20.40
2019-06-10T09:49:51.437Z,20.40
2019-06-10T09:52:18.315Z,20.50
2019-06-10T09:54:48.816Z,20.50
2019-06-10T09:57:13.687Z,20.60
2019-06-10T09:59:43.879Z,20.60
2019-06-10T10:02:09.488Z,20.70
2019-06-10T10:04:37.604Z,20.70
2019-06-10T10:07:04.819Z,20.70
2019-06-10T10:09:36.162Z,20.80
2019-06-10T10:12:00.117Z,20.80
2019-06-10T10:14:26.719Z,20.90
2019-06-10T10:16:59.900Z,20.90
2019-06-10T10:19:23.165Z,20.90
2019-06-10T10:21:56.037Z,20.90
2019-06-10T10:24:18.495Z,21.00
2019-06-10T10:26:48.631Z,21.00
2019-06-10T10:29:13.675Z,21.00
2019-06-10T10:31:43.047Z,21.00
2019-06-10T10:34:08.950Z,21.00
2019-06-10T10:36:35.963Z,21.10
2019-06-10T10:39:03.035Z,21.10
2019-06-10T10:41:32.135Z,21.10
2019-06-10T10:43:58.597Z,21.10
2019-06-10T10:46:25.517Z,21.10
2019-06-10T10:48:55.191Z,21.10
2019-06-10T10:51:23.117Z,21.10
2019-06-10T10:54:16.970Z,21.10
2019-06-10T10:56:18.534Z,21.10
2019-06-10T10:58:47.347Z,21.10
2019-06-10T11:01:15.117Z,21.10
2019-06-10T11:03:45.314Z,21.10
2019-06-10T11:06:12.901Z,21.10
2019-06-10T11:08:42.512Z,21.10
2019-06-10T11:11:13.207Z,21.10
2019-06-10T11:13:38.523Z,21.00
2019-06-10T11:16:05.512Z,21.00
2019-06-10T11:18:33.982Z,21.00
2019-06-10T11:21:04.343Z,21.00
2019-06-10T11:23:33.696Z,21.00
2019-06-10T11:25:59.155Z,21.00
2019-06-10T11:28:25.885Z,20.90
2019-06-10T11:30:56.450Z,20.90
2019-06-10T11:33:22.794Z,20.90
2019-06-10T11:35:53.308Z,20.90
2019-06-10T11:38:18.776Z,20.60
2019-06-10T11:40:47.145Z,20.90
2019-06-10T11:43:14.135Z,20.80
2019-06-10T11:45:48.377Z,20.80
2019-06-10T11:48:12.970Z,20.80
2019-06-10T11:50:42.693Z,20.80
2019-06-10T11:53:08.335Z,20.70
2019-06-10T11:55:35.243Z,20.70
2019-06-10T11:58:02.110Z,20.70
2019-06-10T12:00:32.992Z,20.50
2019-06-10T12:02:58.969Z,20.70
2019-06-10T12:05:26.710Z,20.70
2019-06-10T12:07:56.343Z,20.60
2019-06-10T12:10:23.318Z,20.60
2019-06-10T12:12:54.754Z,20.60
2019-06-10T12:15:19.173Z,20.60
2019-06-10T12:17:51.163Z,20.60
2019-06-10T12:20:15.041Z,20.60
2019-06-10T12:22:42.379Z,20.60
2019-06-10T12:25:30.463Z,20.60
2019-06-10T12:27:38.032Z,20.60
2019-06-10T12:30:05.288Z,20.60
2019-06-10T12:32:33.629Z,20.60
2019-06-10T12:35:05.014Z,20.60
2019-06-10T12:37:28.966Z,20.60
2019-06-10T12:39:58.210Z,20.60
2019-06-10T12:42:26.112Z,20.60
2019-06-10T12:44:54.486Z,20.60
2019-06-10T12:47:22.813Z,20.60
2019-06-10T12:49:52.004Z,20.50
2019-06-10T12:52:18.634Z,20.70
2019-06-10T12:54:45.881Z,20.70
2019-06-10T12:57:15.574Z,20.70
2019-06-10T12:59:43.052Z,20.70
2019-06-10T13:02:18.951Z,20.80
2019-06-10T13:04:38.792Z,20.80
2019-06-10T13:07:07.302Z,20.80
2019-06-10T13:09:33.985Z,20.80
2019-06-10T13:12:02.049Z,20.90
2019-06-10T13:14:29.058Z,20.90
2019-06-10T13:16:56.003Z,20.90
2019-06-10T13:19:23.330Z,20.90
2019-06-10T13:21:50.275Z,21.00
2019-06-10T13:24:17.002Z,21.00
2019-06-10T13:26:45.637Z,21.00
2019-06-10T13:29:17.356Z,21.10
2019-06-10T13:31:43.554Z,21.10
2019-06-10T13:34:14.743Z,21.10
2019-06-10T13:36:42.199Z,21.20
2019-06-10T13:39:10.464Z,21.20
2019-06-10T13:41:37.748Z,21.30
2019-06-10T13:44:06.346Z,21.30
2019-06-10T13:46:33.615Z,21.30
2019-06-10T13:49:04.420Z,21.40
2019-06-10T13:51:29.876Z,21.40
2019-06-10T13:53:56.807Z,21.50
2019-06-10T13:56:42.908Z,21.50
2019-06-10T13:58:52.333Z,21.50
2019-06-10T14:01:21.998Z,21.60
2019-06-10T14:03:47.584Z,21.60
2019-06-10T14:06:33.169Z,21.70
2019-06-10T14:08:43.751Z,21.70
2019-06-10T14:11:13.435Z,21.70
2019-06-10T14:13:40.194Z,21.80
2019-06-10T14:16:07.602Z,21.80
2019-06-10T14:18:34.897Z,21.80
2019-06-10T14:21:06.212Z,21.90
2019-06-10T14:23:32.908Z,21.90
2019-06-10T14:25:58.881Z,22.00
2019-06-10T14:28:39.785Z,22.00
2019-06-10T14:30:56.217Z,22.00
2019-06-10T14:33:23.496Z,22.10
2019-06-10T14:35:53.116Z,22.10
2019-06-10T14:38:19.334Z,22.30
2019-06-10T14:40:46.913Z,22.20
2019-06-10T14:43:16.031Z,22.20
2019-06-10T14:45:44.092Z,22.30
2019-06-10T14:48:14.180Z,22.30
2019-06-10T14:50:40.214Z,22.40
2019-06-10T14:53:07.010Z,22.40
2019-06-10T14:55:34.122Z,22.40
2019-06-10T14:58:02.726Z,22.40
2019-06-10T15:00:29.456Z,22.50
2019-06-10T15:02:56.124Z,22.50
2019-06-10T15:05:23.219Z,22.50
2019-06-10T15:07:52.680Z,22.60
2019-06-10T15:10:19.855Z,22.60
2019-06-10T15:12:48.781Z,22.60
2019-06-10T15:15:16.253Z,22.70
2019-06-10T15:17:43.160Z,22.70
2019-06-10T15:20:10.087Z,22.70
2019-06-10T15:22:37.088Z,22.70
2019-06-10T15:25:03.939Z,22.80
2019-06-10T15:27:33.766Z,22.80
2019-06-10T15:29:58.992Z,22.80
2019-06-10T15:32:33.695Z,22.90
2019-06-10T15:34:54.856Z,22.90
2019-06-10T15:37:24.117Z,22.90
2019-06-10T15:39:52.692Z,23.00
2019-06-10T15:42:19.749Z,23.00
2019-06-10T15:44:52.475Z,23.00
2019-06-10T15:47:17.854Z,23.00
2019-06-10T15:49:45.346Z,23.00
2019-06-10T15:52:14.028Z,23.00
2019-06-10T15:54:42.661Z,23.10
2019-06-10T15:57:22.688Z,23.10
2019-06-10T15:59:38.278Z,23.10
2019-06-10T16:02:05.333Z,23.10
2019-06-10T16:04:35.092Z,23.10
2019-06-10T16:07:02.654Z,23.40
2019-06-10T16:09:29.225Z,23.10
2019-06-10T16:11:55.900Z,23.00
2019-06-10T16:14:25.172Z,23.10
2019-06-10T16:16:52.597Z,23.10
2019-06-10T16:19:19.681Z,23.10
2019-06-10T16:21:46.629Z,23.10
2019-06-10T16:24:15.150Z,23.10
2019-06-10T16:26:42.394Z,23.10
2019-06-10T16:29:09.227Z,23.00
2019-06-10T16:31:36.186Z,23.10
2019-06-10T16:34:04.301Z,23.10
2019-06-10T16:36:32.107Z,23.10
2019-06-10T16:38:58.665Z,23.10
2019-06-10T16:41:27.825Z,22.80
2019-06-10T16:43:53.682Z,23.10
2019-06-10T16:46:20.370Z,23.10
2019-06-10T16:48:47.153Z,23.10
2019-06-10T16:51:14.532Z,23.10
2019-06-10T16:53:42.658Z,23.10
2019-06-10T16:56:12.142Z,23.00
2019-06-10T16:58:39.403Z,23.00
2019-06-10T17:01:06.110Z,23.00
2019-06-10T17:03:34.461Z,23.00
2019-06-10T17:06:02.550Z,23.00
2019-06-10T17:08:30.297Z,23.00
2019-06-10T17:10:57.183Z,22.90
2019-06-10T17:13:27.185Z,22.90
2019-06-10T17:15:54.394Z,22.90
2019-06-10T17:18:23.580Z,22.90
2019-06-10T17:20:50.177Z,22.90
2019-06-10T17:23:26.948Z,22.80
2019-06-10T17:25:53.441Z,22.80
2019-06-10T17:28:24.690Z,22.80
2019-06-10T17:30:48.896Z,22.80
2019-06-10T17:33:15.506Z,22.80
2019-06-10T17:35:43.188Z,22.70
2019-06-10T17:38:12.192Z,22.70
2019-06-10T17:40:38.799Z,22.70
2019-06-10T17:43:05.444Z,22.70
2019-06-10T17:45:32.269Z,22.60
2019-06-10T17:47:59.071Z,22.60
2019-06-10T17:50:28.089Z,22.60
2019-06-10T17:52:55.314Z,22.60
2019-06-10T17:55:24.878Z,22.60
2019-06-10T17:57:50.518Z,22.60
2019-06-10T18:00:17.310Z,22.50
2019-06-10T18:02:44.018Z,22.50
2019-06-10T18:05:12.725Z,22.50
2019-06-10T18:07:39.481Z,22.50
2019-06-10T18:10:07.432Z,22.40
2019-06-10T18:12:35.754Z,22.40
2019-06-10T18:15:03.563Z,22.40
2019-06-10T18:17:31.220Z,22.30
2019-06-10T18:20:02.638Z,22.30
2019-06-10T18:22:28.455Z,22.30
2019-06-10T18:24:56.396Z,22.30
2019-06-10T18:27:24.856Z,22.30
2019-06-10T18:29:51.835Z,22.20
2019-06-10T18:32:18.726Z,22.20
2019-06-10T18:34:45.505Z,22.20
2019-06-10T18:37:12.485Z,22.10
2019-06-10T18:39:39.890Z,22.10
2019-06-10T18:42:07.221Z,22.10
2019-06-10T18:44:35.703Z,22.10
2019-06-10T18:47:03.092Z,22.00
2019-06-10T18:49:30.052Z,22.00
2019-06-10T18:51:56.887Z,22.00
2019-06-10T18:54:24.043Z,22.00
2019-06-10T18:56:52.584Z,21.90
2019-06-10T18:59:21.160Z,21.90
2019-06-10T19:01:48.470Z,21.90
2019-06-10T19:04:15.254Z,21.90
2019-06-10T19:06:43.088Z,21.90
2019-06-10T19:09:12.617Z,21.90
2019-06-10T19:11:40.148Z,21.80
2019-06-10T19:14:07.087Z,21.80
2019-06-10T19:16:35.458Z,21.80
2019-06-10T19:19:02.860Z,21.70
2019-06-10T19:21:30.087Z,21.70
2019-06-10T19:23:56.800Z,21.70
2019-06-10T19:26:24.392Z,21.60
2019-06-10T19:28:53.397Z,21.60
2019-06-10T19:31:19.826Z,21.60
2019-06-10T19:33:46.734Z,21.60
2019-06-10T19:36:13.518Z,21.50
2019-06-10T19:38:42.879Z,21.50
2019-06-10T19:41:08.931Z,21.50
2019-06-10T19:43:37.907Z,21.50
2019-06-10T19:46:07.719Z,21.40
2019-06-10T19:48:38.456Z,21.40
2019-06-10T19:51:03.534Z,21.30
2019-06-10T19:53:32.594Z,21.30
2019-06-10T19:55:59.021Z,21.30
2019-06-10T19:58:25.772Z,21.30
2019-06-10T20:00:54.519Z,21.20
2019-06-10T20:03:22.890Z,20.80
2019-06-10T20:05:52.512Z,21.20
2019-06-10T20:08:18.311Z,21.10
2019-06-10T20:10:45.606Z,21.10
2019-06-10T20:13:12.309Z,21.10
2019-06-10T20:15:39.497Z,21.00
2019-06-10T20:18:06.697Z,21.00
2019-06-10T20:20:35.993Z,21.00
2019-06-10T20:23:03.824Z,20.90
2019-06-10T20:25:32.763Z,21.00
2019-06-10T20:27:59.385Z,20.90
2019-06-10T20:30:28.851Z,20.90
2019-06-10T20:32:56.279Z,20.80
2019-06-10T20:35:23.630Z,20.80
2019-06-10T20:37:50.372Z,20.80
2019-06-10T20:40:17.776Z,20.60
2019-06-10T20:42:45.169Z,20.70
2019-06-10T20:45:13.166Z,20.70
2019-06-10T20:47:43.062Z,20.70
2019-06-10T20:50:08.616Z,20.60
2019-06-10T20:52:35.694Z,20.60
2019-06-10T20:55:03.240Z,20.60
2019-06-10T20:57:30.206Z,20.50
2019-06-10T20:59:56.881Z,20.50
2019-06-10T21:02:23.745Z,20.50
2019-06-10T21:04:53.043Z,20.50
2019-06-10T21:07:23.007Z,20.50
2019-06-10T21:09:50.176Z,20.40
2019-06-10T21:12:16.908Z,20.40
2019-06-10T21:14:45.677Z,20.30
2019-06-10T21:17:12.449Z,20.30
2019-06-10T21:19:40.379Z,20.30
2019-06-10T21:22:07.710Z,20.20
2019-06-10T21:24:34.435Z,20.20
2019-06-10T21:27:01.146Z,20.20
2019-06-10T21:29:27.988Z,20.10
2019-06-10T21:31:55.215Z,20.10
2019-06-10T21:34:22.511Z,20.10
2019-06-10T21:36:52.832Z,20.10
2019-06-10T21:39:18.529Z,20.00
2019-06-10T21:41:46.800Z,20.00
2019-06-10T21:44:13.985Z,20.00
2019-06-10T21:46:43.135Z,19.90
2019-06-10T21:49:09.286Z,19.90
2019-06-10T21:51:35.970Z,19.90
2019-06-10T21:54:03.098Z,19.80
2019-06-10T21:56:32.646Z,19.80
2019-06-10T21:58:58.593Z,19.80
2019-06-10T22:01:25.617Z,19.80
2019-06-10T22:03:59.972Z,19.70
2019-06-10T22:06:22.602Z,19.70
2019-06-10T22:08:50.066Z,19.70
2019-06-10T22:11:16.789Z,19.60
2019-06-10T22:13:44.070Z,19.60
2019-06-10T22:16:10.850Z,19.40
2019-06-10T22:18:37.690Z,19.60
2019-06-10T22:21:04.509Z,19.50
2019-06-10T22:23:32.955Z,19.50
2019-06-10T22:25:59.442Z,19.40
2019-06-10T22:28:27.272Z,19.40
2019-06-10T22:31:11.833Z,19.40
2019-06-10T22:33:22.661Z,19.30
2019-06-10T22:35:49.577Z,19.30
2019-06-10T22:38:16.387Z,19.30
2019-06-10T22:40:44.754Z,19.30
2019-06-10T22:43:12.918Z,19.20
2019-06-10T22:45:42.152Z,19.20
2019-06-10T22:48:09.024Z,19.20
2019-06-10T22:50:35.929Z,19.10
2019-06-10T22:53:03.900Z,19.10
2019-06-10T22:55:32.199Z,19.10
2019-06-10T22:58:02.349Z,19.00
2019-06-10T23:00:27.867Z,19.00
2019-06-10T23:02:56.482Z,19.00
2019-06-10T23:05:23.527Z,19.00
2019-06-10T23:07:52.822Z,18.90
2019-06-10T23:10:19.016Z,18.90
2019-06-10T23:12:45.761Z,18.90
2019-06-10T23:15:13.018Z,18.80
2019-06-10T23:17:42.185Z,18.80
2019-06-10T23:20:08.209Z,18.80
2019-06-10T23:22:36.381Z,18.80
2019-06-10T23:25:03.153Z,18.70
2019-06-10T23:27:32.718Z,18.70
2019-06-10T23:30:00.886Z,18.70
2019-06-10T23:32:27.700Z,18.70
2019-06-10T23:34:57.870Z,18.60
2019-06-10T23:37:23.383Z,18.60
2019-06-10T23:39:50.627Z,18.60
2019-06-10T23:42:19.038Z,18.50
2019-06-10T23:44:47.594Z,18.50
2019-06-10T23:47:14.392Z,18.50
2019-06-10T23:49:41.351Z,18.40
2019-06-10T23:52:07.943Z,18.40
2019-06-10T23:54:34.724Z,18.40
2019-06-10T23:57:05.453Z,18.40
2019-06-10T23:59:30.095Z,18.30
